sensor_id;sensor_type;location;lat;lon;timestamp;pressure;altitude;pressure_sealevel;temperature;humidity
13695;BME280;6919;52.344;14.518;2023-08-08T00:02:06;100092.16;;;14.81;100.00
13695;BME280;6919;52.344;14.518;2023-08-08T00:04:35;100093.16;;;14.80;100.00
13695;BME280;6919;52.344;14.518;2023-08-08T00:07:03;100084.28;;;14.86;100.00
13695;BME280;6919;52.344;14.518;2023-08-08T00:09:31;100087.31;;;14.77;100.00
13695;BME280;6919;52.344;14.518;2023-08-08T00:12:01;100091.63;;;14.71;100.00
13695;BME280;6919;52.344;14.518;2023-08-08T00:14:29;100081.41;;;14.66;100.00
13695;BME280;6919;52.344;14.518;2023-08-08T00:16:58;100087.56;;;14.60;100.00
13695;BME280;6919;52.344;14.518;2023-08-08T00:19:26;100086.09;;;14.58;100.00
13695;BME280;6919;52.344;14.518;2023-08-08T00:21:54;100075.56;;;14.42;100.00
13695;BME280;6919;52.344;14.518;2023-08-08T00:24:23;100085.88;;;14.38;100.00
13695;BME280;6919;52.344;14.518;2023-08-08T00:26:51;100071.50;;;14.31;100.00
13695;BME280;6919;52.344;14.518;2023-08-08T00:29:21;100072.34;;;14.32;100.00
13695;BME280;6919;52.344;14.518;2023-08-08T00:31:49;100076.75;;;14.39;100.00
13695;BME280;6919;52.344;14.518;2023-08-08T00:34:17;100068.00;;;14.31;100.00
13695;BME280;6919;52.344;14.518;2023-08-08T00:36:46;100071.25;;;14.26;100.00
13695;BME280;6919;52.344;14.518;2023-08-08T00:39:14;100070.03;;;14.29;100.00
13695;BME280;6919;52.344;14.518;2023-08-08T00:41:43;100058.84;;;14.17;100.00
13695;BME280;6919;52.344;14.518;2023-08-08T00:44:11;100075.41;;;14.14;100.00
13695;BME280;6919;52.344;14.518;2023-08-08T00:46:41;100081.00;;;14.13;100.00
13695;BME280;6919;52.344;14.518;2023-08-08T00:49:10;100071.91;;;14.14;100.00
13695;BME280;6919;52.344;14.518;2023-08-08T00:51:39;100075.34;;;14.08;100.00
13695;BME280;6919;52.344;14.518;2023-08-08T00:54:08;100075.19;;;13.95;100.00
13695;BME280;6919;52.344;14.518;2023-08-08T00:56:38;100079.56;;;13.96;100.00
13695;BME280;6919;52.344;14.518;2023-08-08T00:59:08;100088.47;;;13.96;100.00
13695;BME280;6919;52.344;14.518;2023-08-08T01:01:39;100079.75;;;13.94;100.00
13695;BME280;6919;52.344;14.518;2023-08-08T01:04:08;100084.84;;;13.89;100.00
13695;BME280;6919;52.344;14.518;2023-08-08T01:06:43;100082.25;;;13.81;100.00
13695;BME280;6919;52.344;14.518;2023-08-08T01:09:25;100092.00;;;13.82;100.00
13695;BME280;6919;52.344;14.518;2023-08-08T01:11:56;100096.41;;;13.83;100.00
13695;BME280;6919;52.344;14.518;2023-08-08T01:14:28;100104.31;;;13.85;100.00
13695;BME280;6919;52.344;14.518;2023-08-08T01:16:58;100096.28;;;13.77;100.00
13695;BME280;6919;52.344;14.518;2023-08-08T01:19:31;100098.25;;;13.68;100.00
13695;BME280;6919;52.344;14.518;2023-08-08T01:22:04;100093.69;;;13.69;100.00
13695;BME280;6919;52.344;14.518;2023-08-08T01:24:36;100098.06;;;13.70;100.00
13695;BME280;6919;52.344;14.518;2023-08-08T01:27:05;100089.34;;;13.68;100.00
13695;BME280;6919;52.344;14.518;2023-08-08T01:29:34;100096.59;;;13.67;100.00
13695;BME280;6919;52.344;14.518;2023-08-08T01:32:03;100097.31;;;13.61;100.00
13695;BME280;6919;52.344;14.518;2023-08-08T01:34:32;100108.19;;;13.53;100.00
13695;BME280;6919;52.344;14.518;2023-08-08T01:37:07;100103.91;;;13.59;100.00
13695;BME280;6919;52.344;14.518;2023-08-08T01:39:40;100105.69;;;13.52;100.00
13695;BME280;6919;52.344;14.518;2023-08-08T01:42:10;100102.91;;;13.45;100.00
13695;BME280;6919;52.344;14.518;2023-08-08T01:44:41;100091.00;;;13.40;100.00
13695;BME280;6919;52.344;14.518;2023-08-08T01:47:10;100097.69;;;13.44;100.00
13695;BME280;6919;52.344;14.518;2023-08-08T01:49:38;100099.44;;;13.37;100.00
13695;BME280;6919;52.344;14.518;2023-08-08T01:52:06;100104.84;;;13.37;100.00
13695;BME280;6919;52.344;14.518;2023-08-08T01:54:35;100092.78;;;13.33;100.00
13695;BME280;6919;52.344;14.518;2023-08-08T01:57:05;100095.66;;;13.31;100.00
13695;BME280;6919;52.344;14.518;2023-08-08T01:59:34;100096.84;;;13.29;100.00
13695;BME280;6919;52.344;14.518;2023-08-08T02:02:02;100100.94;;;13.25;100.00
13695;BME280;6919;52.344;14.518;2023-08-08T02:04:30;100087.66;;;13.23;100.00
13695;BME280;6919;52.344;14.518;2023-08-08T02:06:59;100091.47;;;13.29;100.00
13695;BME280;6919;52.344;14.518;2023-08-08T02:09:27;100083.63;;;13.19;100.00
13695;BME280;6919;52.344;14.518;2023-08-08T02:11:55;100090.41;;;13.15;100.00
13695;BME280;6919;52.344;14.518;2023-08-08T02:14:25;100108.78;;;13.12;100.00
13695;BME280;6919;52.344;14.518;2023-08-08T02:16:53;100098.47;;;13.15;100.00
13695;BME280;6919;52.344;14.518;2023-08-08T02:19:22;100078.25;;;13.05;100.00
13695;BME280;6919;52.344;14.518;2023-08-08T02:21:50;100094.38;;;13.05;100.00
13695;BME280;6919;52.344;14.518;2023-08-08T02:24:18;100090.75;;;13.12;100.00
13695;BME280;6919;52.344;14.518;2023-08-08T02:26:47;100087.78;;;13.07;100.00
13695;BME280;6919;52.344;14.518;2023-08-08T02:29:15;100083.97;;;13.02;100.00
13695;BME280;6919;52.344;14.518;2023-08-08T02:31:45;100086.72;;;12.94;100.00
13695;BME280;6919;52.344;14.518;2023-08-08T02:34:13;100082.34;;;12.93;100.00
13695;BME280;6919;52.344;14.518;2023-08-08T02:36:41;100091.06;;;12.95;100.00
13695;BME280;6919;52.344;14.518;2023-08-08T02:39:10;100086.38;;;12.97;100.00
13695;BME280;6919;52.344;14.518;2023-08-08T02:41:38;100089.94;;;12.89;100.00
13695;BME280;6919;52.344;14.518;2023-08-08T02:44:07;100090.22;;;12.80;100.00
13695;BME280;6919;52.344;14.518;2023-08-08T02:46:35;100095.09;;;12.76;100.00
13695;BME280;6919;52.344;14.518;2023-08-08T02:49:05;100102.38;;;12.68;100.00
13695;BME280;6919;52.344;14.518;2023-08-08T02:51:34;100090.47;;;12.70;100.00
13695;BME280;6919;52.344;14.518;2023-08-08T02:54:02;100093.38;;;12.61;100.00
13695;BME280;6919;52.344;14.518;2023-08-08T02:56:30;100093.16;;;12.48;100.00
13695;BME280;6919;52.344;14.518;2023-08-08T02:58:58;100093.44;;;12.53;100.00
13695;BME280;6919;52.344;14.518;2023-08-08T03:01:27;100095.69;;;12.41;100.00
13695;BME280;6919;52.344;14.518;2023-08-08T03:03:55;100094.53;;;12.44;100.00
13695;BME280;6919;52.344;14.518;2023-08-08T03:06:25;100095.66;;;12.49;100.00
13695;BME280;6919;52.344;14.518;2023-08-08T03:08:53;100088.81;;;12.39;100.00
13695;BME280;6919;52.344;14.518;2023-08-08T03:11:22;100103.75;;;12.41;100.00
13695;BME280;6919;52.344;14.518;2023-08-08T03:13:50;100098.59;;;12.32;100.00
13695;BME280;6919;52.344;14.518;2023-08-08T03:16:18;100099.53;;;12.24;100.00
13695;BME280;6919;52.344;14.518;2023-08-08T03:18:47;100093.47;;;12.22;100.00
13695;BME280;6919;52.344;14.518;2023-08-08T03:21:15;100096.28;;;12.29;100.00
13695;BME280;6919;52.344;14.518;2023-08-08T03:23:45;100102.22;;;12.16;100.00
13695;BME280;6919;52.344;14.518;2023-08-08T03:26:13;100096.84;;;12.16;100.00
13695;BME280;6919;52.344;14.518;2023-08-08T03:28:42;100095.97;;;12.24;100.00
13695;BME280;6919;52.344;14.518;2023-08-08T03:31:11;100104.28;;;12.14;100.00
13695;BME280;6919;52.344;14.518;2023-08-08T03:33:39;100097.69;;;12.17;100.00
13695;BME280;6919;52.344;14.518;2023-08-08T03:36:08;100115.50;;;12.18;100.00
13695;BME280;6919;52.344;14.518;2023-08-08T03:38:37;100114.88;;;12.08;100.00
13695;BME280;6919;52.344;14.518;2023-08-08T03:41:07;100113.31;;;12.13;100.00
13695;BME280;6919;52.344;14.518;2023-08-08T03:43:35;100106.78;;;12.16;100.00
13695;BME280;6919;52.344;14.518;2023-08-08T03:46:03;100116.00;;;12.13;100.00
13695;BME280;6919;52.344;14.518;2023-08-08T03:48:32;100112.69;;;12.11;100.00
13695;BME280;6919;52.344;14.518;2023-08-08T03:51:00;100121.94;;;12.09;100.00
13695;BME280;6919;52.344;14.518;2023-08-08T03:53:29;100114.06;;;12.07;100.00
13695;BME280;6919;52.344;14.518;2023-08-08T03:55:58;100116.91;;;12.06;100.00
13695;BME280;6919;52.344;14.518;2023-08-08T03:58:27;100124.28;;;12.12;100.00
13695;BME280;6919;52.344;14.518;2023-08-08T04:00:55;100122.94;;;12.08;100.00
13695;BME280;6919;52.344;14.518;2023-08-08T04:03:24;100129.81;;;12.10;100.00
13695;BME280;6919;52.344;14.518;2023-08-08T04:05:52;100125.09;;;12.12;100.00
13695;BME280;6919;52.344;14.518;2023-08-08T04:08:20;100122.59;;;12.11;100.00
13695;BME280;6919;52.344;14.518;2023-08-08T04:10:49;100122.91;;;12.16;100.00
13695;BME280;6919;52.344;14.518;2023-08-08T04:13:17;100113.69;;;12.10;100.00
13695;BME280;6919;52.344;14.518;2023-08-08T04:15:47;100110.63;;;12.21;100.00
13695;BME280;6919;52.344;14.518;2023-08-08T04:18:15;100109.13;;;12.19;100.00
13695;BME280;6919;52.344;14.518;2023-08-08T04:20:45;100110.56;;;12.29;100.00
13695;BME280;6919;52.344;14.518;2023-08-08T04:23:14;100114.44;;;12.27;100.00
13695;BME280;6919;52.344;14.518;2023-08-08T04:25:42;100113.59;;;12.26;100.00
13695;BME280;6919;52.344;14.518;2023-08-08T04:28:10;100113.03;;;12.39;100.00
13695;BME280;6919;52.344;14.518;2023-08-08T04:30:39;100111.66;;;12.43;100.00
13695;BME280;6919;52.344;14.518;2023-08-08T04:33:09;100107.28;;;12.42;100.00
13695;BME280;6919;52.344;14.518;2023-08-08T04:35:37;100114.66;;;12.48;100.00
13695;BME280;6919;52.344;14.518;2023-08-08T04:38:05;100106.69;;;12.54;100.00
13695;BME280;6919;52.344;14.518;2023-08-08T04:40:34;100107.78;;;12.68;100.00
13695;BME280;6919;52.344;14.518;2023-08-08T04:43:04;100110.81;;;12.87;100.00
13695;BME280;6919;52.344;14.518;2023-08-08T04:45:32;100103.94;;;12.85;100.00
13695;BME280;6919;52.344;14.518;2023-08-08T04:48:01;100109.41;;;12.77;100.00
13695;BME280;6919;52.344;14.518;2023-08-08T04:50:31;100107.72;;;12.76;100.00
13695;BME280;6919;52.344;14.518;2023-08-08T04:52:59;100108.25;;;12.94;100.00
13695;BME280;6919;52.344;14.518;2023-08-08T04:55:27;100101.63;;;13.04;100.00
13695;BME280;6919;52.344;14.518;2023-08-08T04:57:55;100117.91;;;13.11;100.00
13695;BME280;6919;52.344;14.518;2023-08-08T05:00:26;100110.81;;;13.10;100.00
13695;BME280;6919;52.344;14.518;2023-08-08T05:02:54;100111.94;;;13.15;100.00
13695;BME280;6919;52.344;14.518;2023-08-08T05:05:23;100100.19;;;13.31;100.00
13695;BME280;6919;52.344;14.518;2023-08-08T05:07:52;100099.91;;;13.26;100.00
13695;BME280;6919;52.344;14.518;2023-08-08T05:10:21;100095.47;;;13.33;100.00
13695;BME280;6919;52.344;14.518;2023-08-08T05:12:49;100099.63;;;13.35;100.00
13695;BME280;6919;52.344;14.518;2023-08-08T05:15:18;100105.13;;;13.56;100.00
13695;BME280;6919;52.344;14.518;2023-08-08T05:17:46;100098.72;;;13.72;100.00
13695;BME280;6919;52.344;14.518;2023-08-08T05:20:14;100102.34;;;13.79;100.00
13695;BME280;6919;52.344;14.518;2023-08-08T05:22:43;100106.72;;;13.80;100.00
13695;BME280;6919;52.344;14.518;2023-08-08T05:25:12;100097.81;;;13.65;100.00
13695;BME280;6919;52.344;14.518;2023-08-08T05:27:41;100095.38;;;13.84;100.00
13695;BME280;6919;52.344;14.518;2023-08-08T05:30:10;100097.78;;;13.94;100.00
13695;BME280;6919;52.344;14.518;2023-08-08T05:32:38;100103.81;;;13.96;100.00
13695;BME280;6919;52.344;14.518;2023-08-08T05:35:08;100103.97;;;14.23;100.00
13695;BME280;6919;52.344;14.518;2023-08-08T05:37:36;100097.38;;;14.26;100.00
13695;BME280;6919;52.344;14.518;2023-08-08T05:40:06;100113.00;;;14.30;100.00
13695;BME280;6919;52.344;14.518;2023-08-08T05:42:36;100105.53;;;14.32;100.00
13695;BME280;6919;52.344;14.518;2023-08-08T05:45:11;100107.31;;;14.61;100.00
13695;BME280;6919;52.344;14.518;2023-08-08T05:47:41;100105.75;;;14.73;100.00
13695;BME280;6919;52.344;14.518;2023-08-08T05:50:10;100113.47;;;14.55;100.00
13695;BME280;6919;52.344;14.518;2023-08-08T05:52:38;100107.78;;;14.64;100.00
13695;BME280;6919;52.344;14.518;2023-08-08T05:55:07;100106.56;;;14.67;100.00
13695;BME280;6919;52.344;14.518;2023-08-08T05:57:37;100110.59;;;14.77;100.00
13695;BME280;6919;52.344;14.518;2023-08-08T06:00:07;100129.09;;;14.81;100.00
13695;BME280;6919;52.344;14.518;2023-08-08T06:02:39;100113.97;;;15.07;100.00
13695;BME280;6919;52.344;14.518;2023-08-08T06:05:08;100125.16;;;15.04;100.00
13695;BME280;6919;52.344;14.518;2023-08-08T06:07:38;100107.56;;;14.87;100.00
13695;BME280;6919;52.344;14.518;2023-08-08T06:10:08;100129.03;;;14.95;100.00
13695;BME280;6919;52.344;14.518;2023-08-08T06:12:38;100126.94;;;15.18;100.00
13695;BME280;6919;52.344;14.518;2023-08-08T06:15:08;100119.75;;;15.53;100.00
13695;BME280;6919;52.344;14.518;2023-08-08T06:17:40;100136.44;;;15.35;100.00
13695;BME280;6919;52.344;14.518;2023-08-08T06:20:08;100133.91;;;15.06;100.00
13695;BME280;6919;52.344;14.518;2023-08-08T06:22:38;100128.75;;;15.11;100.00
13695;BME280;6919;52.344;14.518;2023-08-08T06:25:07;100130.41;;;15.12;100.00
13695;BME280;6919;52.344;14.518;2023-08-08T06:27:37;100126.38;;;15.02;100.00
13695;BME280;6919;52.344;14.518;2023-08-08T06:30:07;100106.06;;;15.33;100.00
13695;BME280;6919;52.344;14.518;2023-08-08T06:32:36;100130.56;;;15.53;100.00
13695;BME280;6919;52.344;14.518;2023-08-08T06:35:05;100138.81;;;16.06;100.00
13695;BME280;6919;52.344;14.518;2023-08-08T06:37:36;100136.84;;;16.28;100.00
13695;BME280;6919;52.344;14.518;2023-08-08T06:40:06;100138.50;;;16.29;100.00
13695;BME280;6919;52.344;14.518;2023-08-08T06:42:38;100127.56;;;15.69;100.00
13695;BME280;6919;52.344;14.518;2023-08-08T06:45:08;100130.56;;;15.80;100.00
13695;BME280;6919;52.344;14.518;2023-08-08T06:47:36;100127.25;;;15.85;100.00
13695;BME280;6919;52.344;14.518;2023-08-08T06:50:07;100145.66;;;16.02;100.00
13695;BME280;6919;52.344;14.518;2023-08-08T06:52:35;100123.13;;;15.89;100.00
13695;BME280;6919;52.344;14.518;2023-08-08T06:55:04;100120.34;;;15.76;100.00
13695;BME280;6919;52.344;14.518;2023-08-08T06:57:34;100132.69;;;15.91;100.00
13695;BME280;6919;52.344;14.518;2023-08-08T07:00:08;100125.94;;;15.74;100.00
13695;BME280;6919;52.344;14.518;2023-08-08T07:02:40;100116.88;;;15.88;100.00
13695;BME280;6919;52.344;14.518;2023-08-08T07:05:08;100094.16;;;15.76;100.00
13695;BME280;6919;52.344;14.518;2023-08-08T07:07:37;100126.53;;;15.70;100.00
13695;BME280;6919;52.344;14.518;2023-08-08T07:10:07;100133.81;;;15.69;100.00
13695;BME280;6919;52.344;14.518;2023-08-08T07:12:36;100127.78;;;15.74;100.00
13695;BME280;6919;52.344;14.518;2023-08-08T07:15:08;100129.38;;;15.62;100.00
13695;BME280;6919;52.344;14.518;2023-08-08T07:17:36;100131.53;;;15.73;100.00
13695;BME280;6919;52.344;14.518;2023-08-08T07:20:06;100122.59;;;15.72;100.00
13695;BME280;6919;52.344;14.518;2023-08-08T07:22:37;100137.44;;;15.89;100.00
13695;BME280;6919;52.344;14.518;2023-08-08T07:25:07;100131.53;;;15.73;100.00
13695;BME280;6919;52.344;14.518;2023-08-08T07:27:35;100124.56;;;15.85;100.00
13695;BME280;6919;52.344;14.518;2023-08-08T07:30:07;100131.47;;;15.94;100.00
13695;BME280;6919;52.344;14.518;2023-08-08T07:32:36;100133.19;;;16.08;100.00
13695;BME280;6919;52.344;14.518;2023-08-08T07:35:05;100135.59;;;16.37;100.00
13695;BME280;6919;52.344;14.518;2023-08-08T07:37:35;100138.84;;;16.73;100.00
13695;BME280;6919;52.344;14.518;2023-08-08T07:40:15;100134.09;;;16.81;100.00
13695;BME280;6919;52.344;14.518;2023-08-08T07:42:45;100132.66;;;16.92;100.00
13695;BME280;6919;52.344;14.518;2023-08-08T07:45:15;100127.47;;;17.03;100.00
13695;BME280;6919;52.344;14.518;2023-08-08T07:47:44;100122.03;;;17.16;100.00
13695;BME280;6919;52.344;14.518;2023-08-08T07:50:12;100127.47;;;17.03;100.00
13695;BME280;6919;52.344;14.518;2023-08-08T07:52:40;100131.22;;;17.02;100.00
13695;BME280;6919;52.344;14.518;2023-08-08T07:55:09;100120.16;;;16.71;100.00
13695;BME280;6919;52.344;14.518;2023-08-08T07:57:39;100133.47;;;16.79;100.00
13695;BME280;6919;52.344;14.518;2023-08-08T08:00:08;100131.97;;;16.64;100.00
13695;BME280;6919;52.344;14.518;2023-08-08T08:02:43;100130.13;;;16.77;100.00
13695;BME280;6919;52.344;14.518;2023-08-08T08:05:12;100138.19;;;16.58;100.00
13695;BME280;6919;52.344;14.518;2023-08-08T08:07:41;100130.34;;;16.69;100.00
13695;BME280;6919;52.344;14.518;2023-08-08T08:10:11;100133.25;;;16.74;100.00
13695;BME280;6919;52.344;14.518;2023-08-08T08:12:41;100119.28;;;16.64;100.00
13695;BME280;6919;52.344;14.518;2023-08-08T08:15:10;100129.69;;;16.67;100.00
13695;BME280;6919;52.344;14.518;2023-08-08T08:17:40;100137.25;;;16.91;100.00
13695;BME280;6919;52.344;14.518;2023-08-08T08:20:10;100134.16;;;17.27;100.00
13695;BME280;6919;52.344;14.518;2023-08-08T08:22:39;100128.31;;;17.23;100.00
13695;BME280;6919;52.344;14.518;2023-08-08T08:25:08;100125.38;;;17.38;100.00
13695;BME280;6919;52.344;14.518;2023-08-08T08:27:37;100129.97;;;17.11;100.00
13695;BME280;6919;52.344;14.518;2023-08-08T08:30:07;100124.13;;;17.08;100.00
13695;BME280;6919;52.344;14.518;2023-08-08T08:32:38;100138.53;;;17.41;100.00
13695;BME280;6919;52.344;14.518;2023-08-08T08:35:09;100128.72;;;17.14;100.00
13695;BME280;6919;52.344;14.518;2023-08-08T08:37:39;100142.44;;;16.99;100.00
13695;BME280;6919;52.344;14.518;2023-08-08T08:40:09;100130.38;;;17.08;100.00
13695;BME280;6919;52.344;14.518;2023-08-08T08:42:40;100145.19;;;17.06;100.00
13695;BME280;6919;52.344;14.518;2023-08-08T08:45:10;100137.88;;;17.26;100.00
13695;BME280;6919;52.344;14.518;2023-08-08T08:47:41;100132.06;;;17.35;100.00
13695;BME280;6919;52.344;14.518;2023-08-08T08:50:15;100122.91;;;17.56;100.00
13695;BME280;6919;52.344;14.518;2023-08-08T08:52:44;100125.81;;;17.61;100.00
13695;BME280;6919;52.344;14.518;2023-08-08T08:55:13;100121.25;;;17.42;100.00
13695;BME280;6919;52.344;14.518;2023-08-08T08:57:42;100119.34;;;17.29;100.00
13695;BME280;6919;52.344;14.518;2023-08-08T09:00:13;100125.63;;;17.50;100.00
13695;BME280;6919;52.344;14.518;2023-08-08T09:02:46;100121.63;;;17.19;100.00
13695;BME280;6919;52.344;14.518;2023-08-08T09:05:18;100107.88;;;17.40;100.00
13695;BME280;6919;52.344;14.518;2023-08-08T09:07:49;100122.47;;;17.52;100.00
13695;BME280;6919;52.344;14.518;2023-08-08T09:10:19;100120.38;;;17.74;100.00
13695;BME280;6919;52.344;14.518;2023-08-08T09:12:47;100116.56;;;17.88;100.00
13695;BME280;6919;52.344;14.518;2023-08-08T09:15:16;100111.28;;;18.06;100.00
13695;BME280;6919;52.344;14.518;2023-08-08T09:17:46;100108.03;;;17.85;100.00
13695;BME280;6919;52.344;14.518;2023-08-08T09:20:17;100111.19;;;17.82;100.00
13695;BME280;6919;52.344;14.518;2023-08-08T09:22:46;100107.56;;;18.01;100.00
13695;BME280;6919;52.344;14.518;2023-08-08T09:25:15;100110.16;;;17.63;100.00
13695;BME280;6919;52.344;14.518;2023-08-08T09:27:44;100094.13;;;17.62;100.00
13695;BME280;6919;52.344;14.518;2023-08-08T09:30:12;100112.50;;;17.47;100.00
13695;BME280;6919;52.344;14.518;2023-08-08T09:32:43;100111.63;;;17.66;100.00
13695;BME280;6919;52.344;14.518;2023-08-08T09:35:12;100106.94;;;17.99;100.00
13695;BME280;6919;52.344;14.518;2023-08-08T09:37:43;100112.81;;;17.89;100.00
13695;BME280;6919;52.344;14.518;2023-08-08T09:40:12;100112.25;;;18.38;100.00
13695;BME280;6919;52.344;14.518;2023-08-08T09:42:41;100111.00;;;18.40;100.00
13695;BME280;6919;52.344;14.518;2023-08-08T09:45:10;100110.28;;;18.89;100.00
13695;BME280;6919;52.344;14.518;2023-08-08T09:47:38;100092.41;;;18.75;100.00
13695;BME280;6919;52.344;14.518;2023-08-08T09:50:08;100099.28;;;18.40;100.00
13695;BME280;6919;52.344;14.518;2023-08-08T09:52:37;100099.78;;;18.17;100.00
13695;BME280;6919;52.344;14.518;2023-08-08T09:55:10;100098.78;;;18.56;100.00
13695;BME280;6919;52.344;14.518;2023-08-08T09:57:39;100095.72;;;18.46;100.00
13695;BME280;6919;52.344;14.518;2023-08-08T10:00:10;100096.41;;;18.22;100.00
13695;BME280;6919;52.344;14.518;2023-08-08T10:02:44;100091.03;;;18.09;100.00
13695;BME280;6919;52.344;14.518;2023-08-08T10:05:15;100100.72;;;17.92;100.00
13695;BME280;6919;52.344;14.518;2023-08-08T10:07:44;100096.16;;;17.86;100.00
13695;BME280;6919;52.344;14.518;2023-08-08T10:10:15;100093.22;;;17.81;100.00
13695;BME280;6919;52.344;14.518;2023-08-08T10:12:47;100115.16;;;17.33;100.00
13695;BME280;6919;52.344;14.518;2023-08-08T10:15:16;100119.66;;;16.55;100.00
13695;BME280;6919;52.344;14.518;2023-08-08T10:17:44;100124.69;;;16.17;100.00
13695;BME280;6919;52.344;14.518;2023-08-08T10:20:14;100115.88;;;15.96;100.00
13695;BME280;6919;52.344;14.518;2023-08-08T10:22:48;100111.34;;;16.09;100.00
13695;BME280;6919;52.344;14.518;2023-08-08T10:25:23;100113.19;;;16.49;100.00
13695;BME280;6919;52.344;14.518;2023-08-08T10:28:03;100106.63;;;16.97;100.00
13695;BME280;6919;52.344;14.518;2023-08-08T10:30:55;100090.38;;;17.23;100.00
13695;BME280;6919;52.344;14.518;2023-08-08T10:33:27;100098.66;;;17.74;100.00
13695;BME280;6919;52.344;14.518;2023-08-08T10:35:59;100090.44;;;18.00;100.00
13695;BME280;6919;52.344;14.518;2023-08-08T10:38:41;100085.94;;;18.25;100.00
13695;BME280;6919;52.344;14.518;2023-08-08T10:41:12;100092.63;;;18.29;100.00
13695;BME280;6919;52.344;14.518;2023-08-08T10:43:49;100088.72;;;18.19;100.00
13695;BME280;6919;52.344;14.518;2023-08-08T10:46:25;100079.72;;;18.25;100.00
13695;BME280;6919;52.344;14.518;2023-08-08T10:48:53;100081.41;;;18.63;100.00
13695;BME280;6919;52.344;14.518;2023-08-08T10:51:22;100079.69;;;18.69;100.00
13695;BME280;6919;52.344;14.518;2023-08-08T10:53:52;100069.38;;;18.84;100.00
13695;BME280;6919;52.344;14.518;2023-08-08T10:56:23;100070.16;;;18.91;100.00
13695;BME280;6919;52.344;14.518;2023-08-08T10:58:51;100069.22;;;18.35;100.00
13695;BME280;6919;52.344;14.518;2023-08-08T11:01:24;100071.19;;;18.15;100.00
13695;BME280;6919;52.344;14.518;2023-08-08T11:03:57;100059.63;;;18.39;100.00
13695;BME280;6919;52.344;14.518;2023-08-08T11:06:25;100056.06;;;19.00;100.00
13695;BME280;6919;52.344;14.518;2023-08-08T11:08:55;100059.97;;;19.35;100.00
13695;BME280;6919;52.344;14.518;2023-08-08T11:11:24;100061.47;;;19.31;100.00
13695;BME280;6919;52.344;14.518;2023-08-08T11:13:52;100057.50;;;19.70;100.00
13695;BME280;6919;52.344;14.518;2023-08-08T11:16:21;100039.34;;;19.46;96.10
13695;BME280;6919;52.344;14.518;2023-08-08T11:18:49;100049.34;;;19.70;100.00
13695;BME280;6919;52.344;14.518;2023-08-08T11:21:17;100048.50;;;19.87;100.00
13695;BME280;6919;52.344;14.518;2023-08-08T11:23:47;100047.38;;;19.59;99.52
13695;BME280;6919;52.344;14.518;2023-08-08T11:26:18;100039.66;;;19.38;100.00
13695;BME280;6919;52.344;14.518;2023-08-08T11:28:52;100050.63;;;19.25;100.00
13695;BME280;6919;52.344;14.518;2023-08-08T11:31:20;100047.13;;;19.18;100.00
13695;BME280;6919;52.344;14.518;2023-08-08T11:33:49;100044.75;;;19.70;100.00
13695;BME280;6919;52.344;14.518;2023-08-08T11:36:19;100042.75;;;19.95;100.00
13695;BME280;6919;52.344;14.518;2023-08-08T11:38:50;100036.69;;;19.93;100.00
13695;BME280;6919;52.344;14.518;2023-08-08T11:41:23;100038.47;;;20.36;100.00
13695;BME280;6919;52.344;14.518;2023-08-08T11:43:55;100039.03;;;20.26;100.00
13695;BME280;6919;52.344;14.518;2023-08-08T11:46:24;100037.84;;;20.22;100.00
13695;BME280;6919;52.344;14.518;2023-08-08T11:48:54;100041.59;;;20.80;97.23
13695;BME280;6919;52.344;14.518;2023-08-08T11:51:22;100025.41;;;21.08;92.94
13695;BME280;6919;52.344;14.518;2023-08-08T11:53:52;100025.31;;;21.26;91.49
13695;BME280;6919;52.344;14.518;2023-08-08T11:56:22;100014.56;;;20.79;92.20
13695;BME280;6919;52.344;14.518;2023-08-08T11:58:51;100017.84;;;20.10;90.79
13695;BME280;6919;52.344;14.518;2023-08-08T12:01:25;100010.78;;;19.37;94.02
13695;BME280;6919;52.344;14.518;2023-08-08T12:03:54;100023.16;;;19.08;97.13
13695;BME280;6919;52.344;14.518;2023-08-08T12:06:28;100033.84;;;18.79;100.00
13695;BME280;6919;52.344;14.518;2023-08-08T12:08:57;100045.38;;;18.74;100.00
13695;BME280;6919;52.344;14.518;2023-08-08T12:11:27;100055.25;;;18.31;100.00
13695;BME280;6919;52.344;14.518;2023-08-08T12:14:00;100086.81;;;16.97;100.00
13695;BME280;6919;52.344;14.518;2023-08-08T12:16:31;100082.31;;;16.31;100.00
13695;BME280;6919;52.344;14.518;2023-08-08T12:19:02;100085.03;;;16.37;100.00
13695;BME280;6919;52.344;14.518;2023-08-08T12:21:30;100073.56;;;16.35;100.00
13695;BME280;6919;52.344;14.518;2023-08-08T12:24:00;100073.44;;;16.50;100.00
13695;BME280;6919;52.344;14.518;2023-08-08T12:26:28;100061.00;;;16.94;100.00
13695;BME280;6919;52.344;14.518;2023-08-08T12:28:57;100064.31;;;17.55;100.00
13695;BME280;6919;52.344;14.518;2023-08-08T12:31:25;100063.09;;;18.08;100.00
13695;BME280;6919;52.344;14.518;2023-08-08T12:33:55;100068.53;;;18.08;100.00
13695;BME280;6919;52.344;14.518;2023-08-08T12:36:24;100061.88;;;17.98;100.00
13695;BME280;6919;52.344;14.518;2023-08-08T12:38:52;100067.53;;;17.90;100.00
13695;BME280;6919;52.344;14.518;2023-08-08T12:41:20;100071.97;;;17.71;100.00
13695;BME280;6919;52.344;14.518;2023-08-08T12:43:48;100060.66;;;17.81;100.00
13695;BME280;6919;52.344;14.518;2023-08-08T12:46:17;100061.63;;;17.42;100.00
13695;BME280;6919;52.344;14.518;2023-08-08T12:48:45;100072.44;;;17.09;100.00
13695;BME280;6919;52.344;14.518;2023-08-08T12:51:15;100094.13;;;16.96;100.00
13695;BME280;6919;52.344;14.518;2023-08-08T12:53:44;100096.56;;;16.59;100.00